Midway, AR (72651)

4:42 PM CDT on August 27, 2016 (GMT -0500)
High Ridge | | Change Station

Elev 900 ft 36.39 °N, 92.49 °W | Updated 19 seconds ago

Light Rain
Light Rain
79.0 °F
Feels Like 83 °F
N
0.0
Wind Variable Wind from North
Gusts 1.3 mph

Today
High -- | Low -- °F
--% Chance of Precip.
Yesterday
High -- | Low -- °F
Precip. -- in
Pressure 30.03 in
Visibility 10.0 miles
Clouds Scattered Clouds 3900 ft
Mostly Cloudy 4800 ft
Mostly Cloudy 7500 ft
Heat Index 83 °F
Dew Point 74 °F
Humidity 85%
Rainfall 0.17 in
Snow Depth Not available.
6:37 AM 7:43 PM
Waning Crescent, 21% visible
SPECI KBPK 272104Z AUTO 18003KT 10SM -RA SCT039 BKN048 BKN075 25/24 A3003 RMK AO2 TSE01 P0000 T02500239
Pressure 30.03 in
Visibility 10.0 miles
Clouds Scattered Clouds 3900 ft
Mostly Cloudy 4800 ft
Mostly Cloudy 7500 ft
Heat Index 83 °F
Dew Point 74 °F
Humidity 85%
Rainfall 0.17 in
Snow Depth Not available.
6:37 AM 7:43 PM
Waning Crescent, 21% visible
SPECI KBPK 272104Z AUTO 18003KT 10SM -RA SCT039 BKN048 BKN075 25/24 A3003 RMK AO2 TSE01 P0000 T02500239

10-Day Weather Forecast

Almanac

Astronomy

Aug. 27, 2016 Rise Set
Actual Time
Civil Twilight
Nautical Twilight
Astronomical Twilight
Moon
Length of Visible Light
Length of Day
Tomorrow will be .
, % of the Moon is Illuminated

Today's Extremes

State Highs State Lows

Community

WunderPhotos

Upload Photos

1,935,455 photos uploaded!

WunderBlog® & News

Nearby

Air Quality

  Air Quality AQ Index Pollutant
Not available.

Snow Depth

Station Depth Elevation

Earthquake Activity

City Distance Mag. Time & Date
Minimum magnitude displayed is 2.5.

Coastal Water Temperatures

Place Temperature

Stations

Nearby Weather Stations

Station Location Temp. Windchill Dew Point Humidity Wind Precip. Elev Updated Type
                   

Watches & Warnings

There are currently no watches in effect.